Terminal Aerodrome Forecast
Issued by NWS Sterling, VA

Current Version | Previous Version | Text Only | Print | Product List | Glossary Off
Versions: 1 2 3 4 5 6 7 8 9 10 11 12 13 14 15 16 17

000
FTUS41 KLWX 200500
TAFMRB
TAF
KMRB 200525Z 2006/2106 VRB03KT P6SM BKN050
     FM200800 VRB03KT 5SM BR BKN015
     FM201000 00000KT 2SM BR BKN015
     FM201300 VRB03KT P6SM BKN025
     FM201600 17006KT P6SM VCTS BKN050CB
     FM201900 17005KT 6SM -SHRA VCTS BKN050CB
     FM202200 17005KT P6SM BKN050=

USA.gov is the U.S. government's official web portal to all federal, state and local government web resources and services.